Carp, Canada
Current Conditions -  °F | °C
As of 8:00 PM on Thursday 27 Nov 2014 (Local Time) from CYOW Reporting Station
Overcast Overcast  
Wind Chill: 16°   Ceiling: 3800
Heat Index: 25°   Visibility: 15mi
Dew Point: 16°   Wind: 8mph
Humidity: 69%   Direction: 300°WNW
Pressure: 30.06"   Gusts: NA
Location:  45.35°N, 76.03°W
Report Text: CYOW 280100Z 30007KT 15SM BKN038 OVC090 M04/M09 A3006 RMK SC5AC3 SLP185
Loading
Personal Weather Stations






























Interactive Weather Map New forecast layout! Learn more

10-Day Weather Forecast

Advertisements
Track Severe Weather on mobile